sensor_id;sensor_type;location;lat;lon;timestamp;temperature;humidity
51253;DHT22;38936;47.808;19.936;2022-08-19T00:02:12;25.50;75.70
51253;DHT22;38936;47.808;19.936;2022-08-19T00:04:37;25.50;75.00
51253;DHT22;38936;47.808;19.936;2022-08-19T00:07:04;25.50;75.10
51253;DHT22;38936;47.808;19.936;2022-08-19T00:09:30;25.50;75.10
51253;DHT22;38936;47.808;19.936;2022-08-19T00:11:56;25.50;75.10
51253;DHT22;38936;47.808;19.936;2022-08-19T00:14:24;25.50;75.40
51253;DHT22;38936;47.808;19.936;2022-08-19T00:16:51;25.50;75.40
51253;DHT22;38936;47.808;19.936;2022-08-19T00:19:19;25.50;75.40
51253;DHT22;38936;47.808;19.936;2022-08-19T00:21:45;25.50;75.80
51253;DHT22;38936;47.808;19.936;2022-08-19T00:24:13;25.40;76.20
51253;DHT22;38936;47.808;19.936;2022-08-19T00:26:39;25.40;75.70
51253;DHT22;38936;47.808;19.936;2022-08-19T00:29:07;25.40;76.20
51253;DHT22;38936;47.808;19.936;2022-08-19T00:31:33;25.40;76.90
51253;DHT22;38936;47.808;19.936;2022-08-19T00:33:58;25.30;76.80
51253;DHT22;38936;47.808;19.936;2022-08-19T00:36:24;25.30;77.60
51253;DHT22;38936;47.808;19.936;2022-08-19T00:38:50;25.30;77.30
51253;DHT22;38936;47.808;19.936;2022-08-19T00:41:19;25.20;77.50
51253;DHT22;38936;47.808;19.936;2022-08-19T00:44:05;25.20;77.90
51253;DHT22;38936;47.808;19.936;2022-08-19T00:46:33;25.20;79.40
51253;DHT22;38936;47.808;19.936;2022-08-19T00:49:00;25.00;79.20
51253;DHT22;38936;47.808;19.936;2022-08-19T00:51:29;25.00;79.20
51253;DHT22;38936;47.808;19.936;2022-08-19T00:53:57;25.00;79.10
51253;DHT22;38936;47.808;19.936;2022-08-19T00:56:24;25.00;79.60
51253;DHT22;38936;47.808;19.936;2022-08-19T00:58:51;25.00;79.80
51253;DHT22;38936;47.808;19.936;2022-08-19T01:01:17;25.00;80.20
51253;DHT22;38936;47.808;19.936;2022-08-19T01:03:43;24.90;80.10
51253;DHT22;38936;47.808;19.936;2022-08-19T01:06:08;25.00;80.30
51253;DHT22;38936;47.808;19.936;2022-08-19T01:08:34;24.90;80.50
51253;DHT22;38936;47.808;19.936;2022-08-19T01:11:00;24.80;81.00
51253;DHT22;38936;47.808;19.936;2022-08-19T01:13:29;24.70;81.40
51253;DHT22;38936;47.808;19.936;2022-08-19T01:16:00;24.70;81.50
51253;DHT22;38936;47.808;19.936;2022-08-19T01:18:27;24.60;81.90
51253;DHT22;38936;47.808;19.936;2022-08-19T01:20:57;24.60;81.90
51253;DHT22;38936;47.808;19.936;2022-08-19T01:23:23;24.50;82.10
51253;DHT22;38936;47.808;19.936;2022-08-19T01:26:13;24.50;82.40
51253;DHT22;38936;47.808;19.936;2022-08-19T01:28:39;24.50;82.40
51253;DHT22;38936;47.808;19.936;2022-08-19T01:31:08;24.50;82.90
51253;DHT22;38936;47.808;19.936;2022-08-19T01:33:37;24.50;83.00
51253;DHT22;38936;47.808;19.936;2022-08-19T01:36:14;24.60;82.00
51253;DHT22;38936;47.808;19.936;2022-08-19T01:38:42;24.80;81.60
51253;DHT22;38936;47.808;19.936;2022-08-19T01:41:10;24.90;81.30
51253;DHT22;38936;47.808;19.936;2022-08-19T01:43:36;25.00;80.80
51253;DHT22;38936;47.808;19.936;2022-08-19T01:46:03;25.20;80.70
51253;DHT22;38936;47.808;19.936;2022-08-19T01:48:38;25.20;80.40
51253;DHT22;38936;47.808;19.936;2022-08-19T01:51:05;25.20;80.00
51253;DHT22;38936;47.808;19.936;2022-08-19T01:53:31;25.30;80.30
51253;DHT22;38936;47.808;19.936;2022-08-19T01:55:57;25.30;80.40
51253;DHT22;38936;47.808;19.936;2022-08-19T01:58:27;25.30;80.00
51253;DHT22;38936;47.808;19.936;2022-08-19T02:00:56;25.30;80.20
51253;DHT22;38936;47.808;19.936;2022-08-19T02:03:22;25.30;80.10
51253;DHT22;38936;47.808;19.936;2022-08-19T02:05:53;25.30;80.20
51253;DHT22;38936;47.808;19.936;2022-08-19T02:08:18;25.30;80.30
51253;DHT22;38936;47.808;19.936;2022-08-19T02:10:44;25.20;81.10
51253;DHT22;38936;47.808;19.936;2022-08-19T02:13:11;25.20;80.80
51253;DHT22;38936;47.808;19.936;2022-08-19T02:15:37;25.20;81.50
51253;DHT22;38936;47.808;19.936;2022-08-19T02:18:03;25.00;81.90
51253;DHT22;38936;47.808;19.936;2022-08-19T02:20:29;24.90;82.10
51253;DHT22;38936;47.808;19.936;2022-08-19T02:22:54;24.80;82.70
51253;DHT22;38936;47.808;19.936;2022-08-19T02:25:20;24.70;83.60
51253;DHT22;38936;47.808;19.936;2022-08-19T02:27:46;24.50;83.50
51253;DHT22;38936;47.808;19.936;2022-08-19T02:30:15;24.40;84.00
51253;DHT22;38936;47.808;19.936;2022-08-19T02:32:42;24.30;84.80
51253;DHT22;38936;47.808;19.936;2022-08-19T02:35:08;24.20;85.10
51253;DHT22;38936;47.808;19.936;2022-08-19T02:37:34;24.20;85.60
51253;DHT22;38936;47.808;19.936;2022-08-19T02:40:18;24.20;85.60
51253;DHT22;38936;47.808;19.936;2022-08-19T02:42:45;24.20;85.70
51253;DHT22;38936;47.808;19.936;2022-08-19T02:45:12;24.20;85.30
51253;DHT22;38936;47.808;19.936;2022-08-19T02:47:38;24.20;85.50
51253;DHT22;38936;47.808;19.936;2022-08-19T02:50:05;24.30;86.00
51253;DHT22;38936;47.808;19.936;2022-08-19T02:52:32;24.30;86.00
51253;DHT22;38936;47.808;19.936;2022-08-19T02:54:58;24.20;86.30
51253;DHT22;38936;47.808;19.936;2022-08-19T02:57:24;24.10;86.40
51253;DHT22;38936;47.808;19.936;2022-08-19T02:59:50;24.10;86.80
51253;DHT22;38936;47.808;19.936;2022-08-19T03:02:16;24.00;87.20
51253;DHT22;38936;47.808;19.936;2022-08-19T03:04:41;24.00;87.70
51253;DHT22;38936;47.808;19.936;2022-08-19T03:07:08;23.90;88.20
51253;DHT22;38936;47.808;19.936;2022-08-19T03:09:36;23.80;88.70
51253;DHT22;38936;47.808;19.936;2022-08-19T03:12:03;23.80;89.40
51253;DHT22;38936;47.808;19.936;2022-08-19T03:14:31;23.70;89.90
51253;DHT22;38936;47.808;19.936;2022-08-19T03:16:57;23.60;89.80
51253;DHT22;38936;47.808;19.936;2022-08-19T03:19:23;23.70;90.00
51253;DHT22;38936;47.808;19.936;2022-08-19T03:21:50;23.60;90.10
51253;DHT22;38936;47.808;19.936;2022-08-19T03:24:17;23.60;90.10
51253;DHT22;38936;47.808;19.936;2022-08-19T03:26:49;23.70;89.70
51253;DHT22;38936;47.808;19.936;2022-08-19T03:29:17;23.70;89.40
51253;DHT22;38936;47.808;19.936;2022-08-19T03:31:43;23.80;89.20
51253;DHT22;38936;47.808;19.936;2022-08-19T03:34:32;23.80;89.00
51253;DHT22;38936;47.808;19.936;2022-08-19T03:37:03;23.80;89.00
51253;DHT22;38936;47.808;19.936;2022-08-19T03:39:29;23.80;88.80
51253;DHT22;38936;47.808;19.936;2022-08-19T03:41:55;23.80;89.00
51253;DHT22;38936;47.808;19.936;2022-08-19T03:44:23;23.80;89.00
51253;DHT22;38936;47.808;19.936;2022-08-19T03:46:56;23.80;89.20
51253;DHT22;38936;47.808;19.936;2022-08-19T03:49:24;23.90;88.50
51253;DHT22;38936;47.808;19.936;2022-08-19T03:51:50;24.00;89.00
51253;DHT22;38936;47.808;19.936;2022-08-19T03:54:19;24.10;88.30
51253;DHT22;38936;47.808;19.936;2022-08-19T03:56:47;24.10;87.20
51253;DHT22;38936;47.808;19.936;2022-08-19T03:59:20;24.40;86.40
51253;DHT22;38936;47.808;19.936;2022-08-19T04:01:46;24.60;85.60
51253;DHT22;38936;47.808;19.936;2022-08-19T04:04:11;24.70;86.10
51253;DHT22;38936;47.808;19.936;2022-08-19T04:06:38;24.70;85.60
51253;DHT22;38936;47.808;19.936;2022-08-19T04:09:05;24.80;85.50
51253;DHT22;38936;47.808;19.936;2022-08-19T04:11:35;24.80;85.20
51253;DHT22;38936;47.808;19.936;2022-08-19T04:14:01;24.90;84.90
51253;DHT22;38936;47.808;19.936;2022-08-19T04:16:28;24.90;85.40
51253;DHT22;38936;47.808;19.936;2022-08-19T04:18:55;25.00;84.60
51253;DHT22;38936;47.808;19.936;2022-08-19T04:21:23;25.00;84.50
51253;DHT22;38936;47.808;19.936;2022-08-19T04:23:50;25.10;84.60
51253;DHT22;38936;47.808;19.936;2022-08-19T04:26:24;25.10;84.60
51253;DHT22;38936;47.808;19.936;2022-08-19T04:28:50;25.20;84.20
51253;DHT22;38936;47.808;19.936;2022-08-19T04:31:26;25.20;84.30
51253;DHT22;38936;47.808;19.936;2022-08-19T04:33:57;25.20;85.20
51253;DHT22;38936;47.808;19.936;2022-08-19T04:36:29;25.20;85.80
51253;DHT22;38936;47.808;19.936;2022-08-19T04:38:59;25.20;86.20
51253;DHT22;38936;47.808;19.936;2022-08-19T04:41:25;25.30;85.10
51253;DHT22;38936;47.808;19.936;2022-08-19T04:44:10;25.30;85.50
51253;DHT22;38936;47.808;19.936;2022-08-19T04:46:36;25.40;85.00
51253;DHT22;38936;47.808;19.936;2022-08-19T04:49:04;25.40;84.70
51253;DHT22;38936;47.808;19.936;2022-08-19T04:51:31;25.50;84.60
51253;DHT22;38936;47.808;19.936;2022-08-19T04:53:58;25.60;84.60
51253;DHT22;38936;47.808;19.936;2022-08-19T04:56:25;25.70;84.80
51253;DHT22;38936;47.808;19.936;2022-08-19T04:58:53;25.80;84.70
51253;DHT22;38936;47.808;19.936;2022-08-19T05:01:24;26.00;84.60
51253;DHT22;38936;47.808;19.936;2022-08-19T05:03:50;26.10;84.70
51253;DHT22;38936;47.808;19.936;2022-08-19T05:06:18;26.40;84.20
51253;DHT22;38936;47.808;19.936;2022-08-19T05:08:45;26.40;83.90
51253;DHT22;38936;47.808;19.936;2022-08-19T05:11:44;26.60;83.20
51253;DHT22;38936;47.808;19.936;2022-08-19T05:14:10;26.80;84.40
51253;DHT22;38936;47.808;19.936;2022-08-19T05:16:38;26.90;83.60
51253;DHT22;38936;47.808;19.936;2022-08-19T05:19:04;27.10;83.20
51253;DHT22;38936;47.808;19.936;2022-08-19T05:21:48;27.30;80.70
51253;DHT22;38936;47.808;19.936;2022-08-19T05:24:32;27.50;80.20
51253;DHT22;38936;47.808;19.936;2022-08-19T05:27:01;27.90;79.20
51253;DHT22;38936;47.808;19.936;2022-08-19T05:29:29;28.20;78.70
51253;DHT22;38936;47.808;19.936;2022-08-19T05:31:57;28.40;77.70
51253;DHT22;38936;47.808;19.936;2022-08-19T05:34:24;28.60;77.00
51253;DHT22;38936;47.808;19.936;2022-08-19T05:36:56;28.90;76.60
51253;DHT22;38936;47.808;19.936;2022-08-19T05:39:24;29.10;76.50
51253;DHT22;38936;47.808;19.936;2022-08-19T05:41:53;29.30;75.80
51253;DHT22;38936;47.808;19.936;2022-08-19T05:44:20;29.40;74.30
51253;DHT22;38936;47.808;19.936;2022-08-19T05:46:47;29.50;74.30
51253;DHT22;38936;47.808;19.936;2022-08-19T05:49:14;29.60;73.50
51253;DHT22;38936;47.808;19.936;2022-08-19T05:51:41;29.70;73.60
51253;DHT22;38936;47.808;19.936;2022-08-19T05:54:08;29.80;73.60
51253;DHT22;38936;47.808;19.936;2022-08-19T05:56:34;30.10;72.30
51253;DHT22;38936;47.808;19.936;2022-08-19T05:59:04;30.40;72.10
51253;DHT22;38936;47.808;19.936;2022-08-19T06:01:34;30.70;72.50
51253;DHT22;38936;47.808;19.936;2022-08-19T06:04:00;30.90;70.30
51253;DHT22;38936;47.808;19.936;2022-08-19T06:06:26;31.20;69.80
51253;DHT22;38936;47.808;19.936;2022-08-19T06:08:52;31.30;69.20
51253;DHT22;38936;47.808;19.936;2022-08-19T06:11:23;31.70;68.50
51253;DHT22;38936;47.808;19.936;2022-08-19T06:13:51;31.90;67.60
51253;DHT22;38936;47.808;19.936;2022-08-19T06:16:22;32.00;66.60
51253;DHT22;38936;47.808;19.936;2022-08-19T06:18:55;32.30;66.50
51253;DHT22;38936;47.808;19.936;2022-08-19T06:21:24;32.70;66.00
51253;DHT22;38936;47.808;19.936;2022-08-19T06:23:51;33.10;65.10
51253;DHT22;38936;47.808;19.936;2022-08-19T06:26:18;33.20;62.80
51253;DHT22;38936;47.808;19.936;2022-08-19T06:28:44;33.30;62.90
51253;DHT22;38936;47.808;19.936;2022-08-19T06:31:32;33.50;62.10
51253;DHT22;38936;47.808;19.936;2022-08-19T06:34:00;33.80;60.90
51253;DHT22;38936;47.808;19.936;2022-08-19T06:36:32;33.90;59.80
51253;DHT22;38936;47.808;19.936;2022-08-19T06:39:05;33.90;59.70
51253;DHT22;38936;47.808;19.936;2022-08-19T06:41:33;33.70;59.50
51253;DHT22;38936;47.808;19.936;2022-08-19T06:43:59;33.60;59.90
51253;DHT22;38936;47.808;19.936;2022-08-19T06:46:25;33.70;59.90
51253;DHT22;38936;47.808;19.936;2022-08-19T06:48:52;33.70;59.70
51253;DHT22;38936;47.808;19.936;2022-08-19T06:51:20;33.60;59.90
51253;DHT22;38936;47.808;19.936;2022-08-19T06:53:47;33.50;59.50
51253;DHT22;38936;47.808;19.936;2022-08-19T06:56:15;33.70;59.40
51253;DHT22;38936;47.808;19.936;2022-08-19T06:58:40;33.90;57.90
51253;DHT22;38936;47.808;19.936;2022-08-19T07:01:06;34.00;57.80
51253;DHT22;38936;47.808;19.936;2022-08-19T07:03:34;34.00;57.70
51253;DHT22;38936;47.808;19.936;2022-08-19T07:06:12;33.70;57.40
51253;DHT22;38936;47.808;19.936;2022-08-19T07:08:40;34.00;56.70
51253;DHT22;38936;47.808;19.936;2022-08-19T07:11:11;34.00;56.70
51253;DHT22;38936;47.808;19.936;2022-08-19T07:13:39;34.20;56.10
51253;DHT22;38936;47.808;19.936;2022-08-19T07:16:10;34.30;56.20
51253;DHT22;38936;47.808;19.936;2022-08-19T07:18:37;34.40;56.00
51253;DHT22;38936;47.808;19.936;2022-08-19T07:21:10;34.70;55.80
51253;DHT22;38936;47.808;19.936;2022-08-19T07:23:36;34.80;54.90
51253;DHT22;38936;47.808;19.936;2022-08-19T07:26:15;34.90;53.80
51253;DHT22;38936;47.808;19.936;2022-08-19T07:28:41;35.10;54.00
51253;DHT22;38936;47.808;19.936;2022-08-19T07:31:11;35.10;54.80
51253;DHT22;38936;47.808;19.936;2022-08-19T07:33:39;35.20;53.10
51253;DHT22;38936;47.808;19.936;2022-08-19T07:36:07;35.50;52.90
51253;DHT22;38936;47.808;19.936;2022-08-19T07:38:37;35.20;52.30
51253;DHT22;38936;47.808;19.936;2022-08-19T07:41:03;35.50;52.80
51253;DHT22;38936;47.808;19.936;2022-08-19T07:43:29;35.80;52.40
51253;DHT22;38936;47.808;19.936;2022-08-19T07:45:55;36.10;52.10
51253;DHT22;38936;47.808;19.936;2022-08-19T07:48:25;36.40;51.30
51253;DHT22;38936;47.808;19.936;2022-08-19T07:50:56;36.10;51.30
51253;DHT22;38936;47.808;19.936;2022-08-19T07:53:23;36.10;51.50
51253;DHT22;38936;47.808;19.936;2022-08-19T07:55:49;35.90;50.80
51253;DHT22;38936;47.808;19.936;2022-08-19T07:58:18;36.00;51.50
51253;DHT22;38936;47.808;19.936;2022-08-19T08:00:46;36.20;51.00
51253;DHT22;38936;47.808;19.936;2022-08-19T08:03:13;36.40;51.20
51253;DHT22;38936;47.808;19.936;2022-08-19T08:05:40;36.60;50.10
51253;DHT22;38936;47.808;19.936;2022-08-19T08:08:24;36.80;50.50
51253;DHT22;38936;47.808;19.936;2022-08-19T08:11:03;37.10;49.00
51253;DHT22;38936;47.808;19.936;2022-08-19T08:13:29;37.40;49.00
51253;DHT22;38936;47.808;19.936;2022-08-19T08:15:56;37.40;48.50
51253;DHT22;38936;47.808;19.936;2022-08-19T08:18:25;37.50;48.00
51253;DHT22;38936;47.808;19.936;2022-08-19T08:20:51;37.30;48.50
51253;DHT22;38936;47.808;19.936;2022-08-19T08:23:16;37.40;47.80
51253;DHT22;38936;47.808;19.936;2022-08-19T08:25:49;37.10;47.50
51253;DHT22;38936;47.808;19.936;2022-08-19T08:28:15;37.30;47.70
51253;DHT22;38936;47.808;19.936;2022-08-19T08:30:41;37.10;48.10
51253;DHT22;38936;47.808;19.936;2022-08-19T08:33:09;36.40;48.50
51253;DHT22;38936;47.808;19.936;2022-08-19T08:35:35;36.30;48.80
51253;DHT22;38936;47.808;19.936;2022-08-19T08:38:02;36.40;48.70
51253;DHT22;38936;47.808;19.936;2022-08-19T08:40:50;36.40;48.90
51253;DHT22;38936;47.808;19.936;2022-08-19T08:43:34;36.40;49.30
51253;DHT22;38936;47.808;19.936;2022-08-19T08:46:04;36.70;48.90
51253;DHT22;38936;47.808;19.936;2022-08-19T08:51:04;36.80;48.60
51253;DHT22;38936;47.808;19.936;2022-08-19T08:53:31;37.00;47.40
51253;DHT22;38936;47.808;19.936;2022-08-19T08:56:02;37.00;47.10
51253;DHT22;38936;47.808;19.936;2022-08-19T08:58:56;36.90;48.00
51253;DHT22;38936;47.808;19.936;2022-08-19T09:01:23;37.20;48.00
51253;DHT22;38936;47.808;19.936;2022-08-19T09:03:49;36.90;47.20
51253;DHT22;38936;47.808;19.936;2022-08-19T09:06:40;37.00;47.00
51253;DHT22;38936;47.808;19.936;2022-08-19T09:09:20;36.70;46.90
51253;DHT22;38936;47.808;19.936;2022-08-19T09:11:58;36.60;47.20
51253;DHT22;38936;47.808;19.936;2022-08-19T09:14:34;36.50;47.90
51253;DHT22;38936;47.808;19.936;2022-08-19T09:17:02;36.70;47.50
51253;DHT22;38936;47.808;19.936;2022-08-19T09:19:29;37.00;46.80
51253;DHT22;38936;47.808;19.936;2022-08-19T09:21:55;37.20;46.70
51253;DHT22;38936;47.808;19.936;2022-08-19T09:24:21;37.30;47.20
51253;DHT22;38936;47.808;19.936;2022-08-19T09:26:46;37.70;46.20
51253;DHT22;38936;47.808;19.936;2022-08-19T09:29:12;37.80;45.80
51253;DHT22;38936;47.808;19.936;2022-08-19T09:31:38;37.90;45.60
51253;DHT22;38936;47.808;19.936;2022-08-19T09:34:04;38.20;45.40
51253;DHT22;38936;47.808;19.936;2022-08-19T09:36:30;38.60;44.70
51253;DHT22;38936;47.808;19.936;2022-08-19T09:38:59;38.70;44.80
51253;DHT22;38936;47.808;19.936;2022-08-19T09:41:25;38.70;44.00
51253;DHT22;38936;47.808;19.936;2022-08-19T09:43:53;38.90;43.80
51253;DHT22;38936;47.808;19.936;2022-08-19T09:46:21;38.60;43.40
51253;DHT22;38936;47.808;19.936;2022-08-19T09:48:48;38.50;43.80
51253;DHT22;38936;47.808;19.936;2022-08-19T09:51:18;38.60;44.40
51253;DHT22;38936;47.808;19.936;2022-08-19T09:53:46;38.90;43.60
51253;DHT22;38936;47.808;19.936;2022-08-19T09:56:13;38.80;43.70
51253;DHT22;38936;47.808;19.936;2022-08-19T09:58:39;39.10;43.50
51253;DHT22;38936;47.808;19.936;2022-08-19T10:01:07;39.30;42.90
51253;DHT22;38936;47.808;19.936;2022-08-19T10:03:34;39.40;41.30
51253;DHT22;38936;47.808;19.936;2022-08-19T10:06:01;39.30;41.20
51253;DHT22;38936;47.808;19.936;2022-08-19T10:08:32;39.20;41.30
51253;DHT22;38936;47.808;19.936;2022-08-19T10:10:59;39.10;42.00
51253;DHT22;38936;47.808;19.936;2022-08-19T10:13:28;39.20;41.40
51253;DHT22;38936;47.808;19.936;2022-08-19T10:15:55;39.10;41.70
51253;DHT22;38936;47.808;19.936;2022-08-19T10:18:23;38.80;41.90
51253;DHT22;38936;47.808;19.936;2022-08-19T10:20:50;38.20;42.50
51253;DHT22;38936;47.808;19.936;2022-08-19T10:23:17;37.50;43.00
51253;DHT22;38936;47.808;19.936;2022-08-19T10:25:43;36.90;44.20
51253;DHT22;38936;47.808;19.936;2022-08-19T10:28:09;36.60;44.80
51253;DHT22;38936;47.808;19.936;2022-08-19T10:30:38;36.40;45.30
51253;DHT22;38936;47.808;19.936;2022-08-19T10:33:05;36.30;45.20
51253;DHT22;38936;47.808;19.936;2022-08-19T10:35:30;36.20;45.20
51253;DHT22;38936;47.808;19.936;2022-08-19T10:37:56;35.90;45.10
51253;DHT22;38936;47.808;19.936;2022-08-19T10:40:27;35.70;45.90
51253;DHT22;38936;47.808;19.936;2022-08-19T10:42:54;35.60;46.40
51253;DHT22;38936;47.808;19.936;2022-08-19T10:45:21;35.60;46.50
51253;DHT22;38936;47.808;19.936;2022-08-19T10:47:50;35.60;46.70
51253;DHT22;38936;47.808;19.936;2022-08-19T10:50:16;35.60;46.60
51253;DHT22;38936;47.808;19.936;2022-08-19T10:53:04;35.60;46.60
51253;DHT22;38936;47.808;19.936;2022-08-19T10:55:30;35.60;47.30
51253;DHT22;38936;47.808;19.936;2022-08-19T10:58:18;35.70;47.60
51253;DHT22;38936;47.808;19.936;2022-08-19T11:00:55;35.70;46.80
51253;DHT22;38936;47.808;19.936;2022-08-19T11:03:22;35.70;47.30
51253;DHT22;38936;47.808;19.936;2022-08-19T11:05:58;35.70;46.80
51253;DHT22;38936;47.808;19.936;2022-08-19T11:08:24;35.70;46.60
51253;DHT22;38936;47.808;19.936;2022-08-19T11:10:53;35.60;47.20
51253;DHT22;38936;47.808;19.936;2022-08-19T11:13:22;35.60;46.80
51253;DHT22;38936;47.808;19.936;2022-08-19T11:15:56;35.50;47.50
51253;DHT22;38936;47.808;19.936;2022-08-19T11:18:22;35.60;46.30
51253;DHT22;38936;47.808;19.936;2022-08-19T11:20:47;35.40;46.10
51253;DHT22;38936;47.808;19.936;2022-08-19T11:23:14;35.30;46.70
51253;DHT22;38936;47.808;19.936;2022-08-19T11:25:40;35.40;46.90
51253;DHT22;38936;47.808;19.936;2022-08-19T11:28:06;35.40;46.70
51253;DHT22;38936;47.808;19.936;2022-08-19T11:30:32;35.50;46.40
51253;DHT22;38936;47.808;19.936;2022-08-19T11:32:58;35.50;46.10
51253;DHT22;38936;47.808;19.936;2022-08-19T11:35:26;35.50;46.70
51253;DHT22;38936;47.808;19.936;2022-08-19T11:37:51;35.30;47.70
51253;DHT22;38936;47.808;19.936;2022-08-19T11:40:17;35.40;47.90
51253;DHT22;38936;47.808;19.936;2022-08-19T11:42:43;35.50;46.70
51253;DHT22;38936;47.808;19.936;2022-08-19T11:45:26;35.50;46.70
51253;DHT22;38936;47.808;19.936;2022-08-19T11:47:52;35.40;46.80
51253;DHT22;38936;47.808;19.936;2022-08-19T11:50:18;35.50;45.80
51253;DHT22;38936;47.808;19.936;2022-08-19T11:52:44;35.40;46.00
51253;DHT22;38936;47.808;19.936;2022-08-19T11:55:11;35.50;45.30
51253;DHT22;38936;47.808;19.936;2022-08-19T11:57:38;35.60;45.60
51253;DHT22;38936;47.808;19.936;2022-08-19T12:00:05;35.60;46.00
51253;DHT22;38936;47.808;19.936;2022-08-19T12:02:32;35.70;46.50
51253;DHT22;38936;47.808;19.936;2022-08-19T12:04:58;35.80;44.90
51253;DHT22;38936;47.808;19.936;2022-08-19T12:07:23;35.90;44.70
51253;DHT22;38936;47.808;19.936;2022-08-19T12:09:50;35.90;45.30
51253;DHT22;38936;47.808;19.936;2022-08-19T12:12:16;36.00;45.00
51253;DHT22;38936;47.808;19.936;2022-08-19T12:14:41;35.90;45.10
51253;DHT22;38936;47.808;19.936;2022-08-19T12:17:07;35.70;45.00
51253;DHT22;38936;47.808;19.936;2022-08-19T12:19:36;35.70;45.50
51253;DHT22;38936;47.808;19.936;2022-08-19T12:22:02;35.70;45.20
51253;DHT22;38936;47.808;19.936;2022-08-19T12:24:31;35.70;45.90
51253;DHT22;38936;47.808;19.936;2022-08-19T12:26:57;35.90;45.60
51253;DHT22;38936;47.808;19.936;2022-08-19T12:29:24;35.90;45.80
51253;DHT22;38936;47.808;19.936;2022-08-19T12:31:55;36.00;44.70
51253;DHT22;38936;47.808;19.936;2022-08-19T12:34:26;36.00;44.90
51253;DHT22;38936;47.808;19.936;2022-08-19T12:36:56;36.00;44.60
51253;DHT22;38936;47.808;19.936;2022-08-19T12:39:21;35.90;45.80
51253;DHT22;38936;47.808;19.936;2022-08-19T12:41:47;35.90;45.10
51253;DHT22;38936;47.808;19.936;2022-08-19T12:44:14;35.90;44.60
51253;DHT22;38936;47.808;19.936;2022-08-19T12:46:40;36.00;44.80
51253;DHT22;38936;47.808;19.936;2022-08-19T12:49:06;36.00;45.30
51253;DHT22;38936;47.808;19.936;2022-08-19T12:51:31;36.00;44.50
51253;DHT22;38936;47.808;19.936;2022-08-19T12:53:57;36.00;44.20
51253;DHT22;38936;47.808;19.936;2022-08-19T12:56:23;36.10;44.50
51253;DHT22;38936;47.808;19.936;2022-08-19T12:58:48;36.20;44.30
51253;DHT22;38936;47.808;19.936;2022-08-19T13:01:16;36.10;43.20
51253;DHT22;38936;47.808;19.936;2022-08-19T13:03:42;36.00;43.60
51253;DHT22;38936;47.808;19.936;2022-08-19T13:06:10;36.10;43.50
51253;DHT22;38936;47.808;19.936;2022-08-19T13:08:36;36.10;43.90
51253;DHT22;38936;47.808;19.936;2022-08-19T13:11:19;36.20;44.10
51253;DHT22;38936;47.808;19.936;2022-08-19T13:13:47;36.30;43.00
51253;DHT22;38936;47.808;19.936;2022-08-19T13:16:13;36.40;42.00
51253;DHT22;38936;47.808;19.936;2022-08-19T13:18:40;36.30;41.80
51253;DHT22;38936;47.808;19.936;2022-08-19T13:21:08;36.20;42.00
51253;DHT22;38936;47.808;19.936;2022-08-19T13:23:35;36.30;42.80
51253;DHT22;38936;47.808;19.936;2022-08-19T13:26:04;36.20;42.70
51253;DHT22;38936;47.808;19.936;2022-08-19T13:28:31;36.20;42.90
51253;DHT22;38936;47.808;19.936;2022-08-19T13:31:22;36.30;43.50
51253;DHT22;38936;47.808;19.936;2022-08-19T13:34:08;36.30;43.40
51253;DHT22;38936;47.808;19.936;2022-08-19T13:36:34;36.30;42.30
51253;DHT22;38936;47.808;19.936;2022-08-19T13:39:00;36.10;42.40
51253;DHT22;38936;47.808;19.936;2022-08-19T13:41:27;36.00;43.00
51253;DHT22;38936;47.808;19.936;2022-08-19T13:43:53;36.00;42.60
51253;DHT22;38936;47.808;19.936;2022-08-19T13:46:20;36.10;41.90
51253;DHT22;38936;47.808;19.936;2022-08-19T13:48:47;36.00;42.90
51253;DHT22;38936;47.808;19.936;2022-08-19T13:51:16;36.10;42.60
51253;DHT22;38936;47.808;19.936;2022-08-19T13:53:43;36.10;42.70
51253;DHT22;38936;47.808;19.936;2022-08-19T13:56:12;36.00;42.70
51253;DHT22;38936;47.808;19.936;2022-08-19T13:58:38;35.90;42.80
51253;DHT22;38936;47.808;19.936;2022-08-19T14:01:04;35.90;43.40
51253;DHT22;38936;47.808;19.936;2022-08-19T14:03:31;35.90;44.00
51253;DHT22;38936;47.808;19.936;2022-08-19T14:05:56;35.90;42.80
51253;DHT22;38936;47.808;19.936;2022-08-19T14:08:23;36.00;43.00
51253;DHT22;38936;47.808;19.936;2022-08-19T14:10:49;36.10;42.90
51253;DHT22;38936;47.808;19.936;2022-08-19T14:13:17;36.20;43.00
51253;DHT22;38936;47.808;19.936;2022-08-19T14:15:44;36.10;42.60
51253;DHT22;38936;47.808;19.936;2022-08-19T14:18:09;36.10;42.70
51253;DHT22;38936;47.808;19.936;2022-08-19T14:20:35;36.00;43.10
51253;DHT22;38936;47.808;19.936;2022-08-19T14:23:02;36.10;42.20
51253;DHT22;38936;47.808;19.936;2022-08-19T14:25:29;36.00;42.00
51253;DHT22;38936;47.808;19.936;2022-08-19T14:27:55;35.90;42.70
51253;DHT22;38936;47.808;19.936;2022-08-19T14:30:33;35.90;42.70
51253;DHT22;38936;47.808;19.936;2022-08-19T14:33:00;35.90;43.00
51253;DHT22;38936;47.808;19.936;2022-08-19T14:35:31;35.80;42.60
51253;DHT22;38936;47.808;19.936;2022-08-19T14:38:00;35.80;43.20
51253;DHT22;38936;47.808;19.936;2022-08-19T14:40:28;35.70;43.50
51253;DHT22;38936;47.808;19.936;2022-08-19T14:43:00;35.60;43.00
51253;DHT22;38936;47.808;19.936;2022-08-19T14:45:31;35.70;43.40
51253;DHT22;38936;47.808;19.936;2022-08-19T14:47:57;35.70;42.90
51253;DHT22;38936;47.808;19.936;2022-08-19T14:50:24;35.70;42.80
51253;DHT22;38936;47.808;19.936;2022-08-19T14:52:56;35.60;43.20
51253;DHT22;38936;47.808;19.936;2022-08-19T14:55:22;35.60;43.80
51253;DHT22;38936;47.808;19.936;2022-08-19T14:57:48;35.60;43.50
51253;DHT22;38936;47.808;19.936;2022-08-19T15:00:14;35.50;42.90
51253;DHT22;38936;47.808;19.936;2022-08-19T15:02:41;35.40;43.70
51253;DHT22;38936;47.808;19.936;2022-08-19T15:05:07;35.30;43.80
51253;DHT22;38936;47.808;19.936;2022-08-19T15:07:33;35.20;43.80
51253;DHT22;38936;47.808;19.936;2022-08-19T15:09:58;35.30;43.90
51253;DHT22;38936;47.808;19.936;2022-08-19T15:12:24;35.30;44.20
51253;DHT22;38936;47.808;19.936;2022-08-19T15:14:50;35.30;44.10
51253;DHT22;38936;47.808;19.936;2022-08-19T15:17:17;35.30;43.90
51253;DHT22;38936;47.808;19.936;2022-08-19T15:19:43;35.20;43.90
51253;DHT22;38936;47.808;19.936;2022-08-19T15:22:09;35.10;44.10
51253;DHT22;38936;47.808;19.936;2022-08-19T15:24:35;35.10;44.70
51253;DHT22;38936;47.808;19.936;2022-08-19T15:27:01;35.10;44.50